South Ryegate, VT (05069)

8:45 AM EDT on July 30, 2015 (GMT -0400)
ROGERs Station | | Change Station
CLOSE
Current Station
Personal Weather Station
Location: Ryegate, VT
Elevation: 630 ft
Nearby Weather Stations

Elev 630 ft 44.20 °N, 72.07 °W | Updated 3 minutes ago

Partly Cloudy
Partly Cloudy
81.3 °F
Feels Like 85 °F
N
0.0
Wind Variable Wind from NE

Today
High -- | Low -- °F
--% Chance of Precip.
Yesterday
High -- | Low -- °F
Precip. -- in
5:33 AM 8:15 PM
Waxing Gibbous, 99% visible
Pressure 29.88 in
Visibility 7.0 miles
Clouds Scattered Clouds 100 ft
Heat Index 85 °F
Dew Point 71 °F
Humidity 70%
Rainfall 0.00 in
Snow Depth Not available.
UV 2 out of 12
Pollen 5.20 out of 12
Air Quality Not available.
Flu Activity Not available.
METAR KMPV 301151Z AUTO 00000KT 7SM SCT001 19/18 A2990 RMK AO2 SLP118 T01940183 10194 20167 58006

More Conditions Fewer Conditions

Pressure 29.88 in
Visibility 7.0 miles
Clouds Scattered Clouds 100 ft
Heat Index 85 °F
Dew Point 71 °F
Humidity 70%
Rainfall 0.00 in
Snow Depth Not available.
UV 2 out of 12
Pollen 5.20 out of 12
Air Quality Not available.
Flu Activity Not available.
METAR KMPV 301151Z AUTO 00000KT 7SM SCT001 19/18 A2990 RMK AO2 SLP118 T01940183 10194 20167 58006

More Conditions Fewer Conditions

10-Day Weather Forecast

×

Almanac

Astronomy

Jul. 30, 2015 Rise Set
Actual Time
Civil Twilight
Nautical Twilight
Astronomical Twilight
Moon
Length of Visible Light
Length of Day
Tomorrow will be .
, % of the Moon is Illuminated

Today's Extremes

State Highs State Lows

Community

WunderPhotos

Upload Photos

1,842,345 photos uploaded!

WunderBlogs® & News

Nearby

Air Quality

  Air Quality AQ Index Pollutant
Not available.

Snow Depth

Station Depth Elevation

Earthquake Activity

City Distance Mag. Time & Date
Minimum magnitude displayed is 2.5.

Coastal Water Temperatures

Place Temperature

Stations

Nearby Weather Stations

Station Location Temp. Windchill Dew Point Humidity Wind Precip. Elev Updated Type